Time;durP1;ratioP1;P1;durP2;ratioP2;P2;SDS_P1;SDS_P2;PMS_P1;PMS_P2;Temp;Humidity;BMP_temperature;BMP_pressure;BME280_temperature;BME280_humidity;BME280_pressure;Samples;Min_cycle;Max_cycle;Signal;HPM_P1;HPM_P2
2021/06/07 00:01:59;;;;;;;8.05;4.73;;;;;;;14.59;79.65;99155.27;129798;1093;23136;-59
2021/06/07 00:04:28;;;;;;;7.15;4.73;;;;;;;14.56;80.11;99145.73;129696;1093;113782;-59
2021/06/07 00:06:57;;;;;;;9.55;5.65;;;;;;;14.56;79.92;99142.17;129799;1092;23370;-59
2021/06/07 00:09:28;;;;;;;8.65;4.88;;;;;;;14.56;79.68;99134.77;129680;1093;114017;-59
2021/06/07 00:11:59;;;;;;;7.28;4.58;;;;;;;14.57;79.93;99141.06;129812;1093;22558;-59
2021/06/07 00:14:30;;;;;;;7.53;4.80;;;;;;;14.55;79.64;99143.28;129817;1093;22749;-60
2021/06/07 00:17:01;;;;;;;11.43;4.48;;;;;;;14.54;79.67;99138.91;129746;1093;113815;-60
2021/06/07 00:19:31;;;;;;;10.35;4.50;;;;;;;14.56;79.63;99147.66;129832;1092;22520;-60
2021/06/07 00:22:01;;;;;;;9.48;4.83;;;;;;;14.54;79.57;99142.46;129688;1092;113971;-59
2021/06/07 00:24:31;;;;;;;7.10;4.70;;;;;;;14.53;79.57;99146.31;129839;1093;22544;-60
2021/06/07 00:27:00;;;;;;;9.95;4.68;;;;;;;14.52;79.43;99152.09;129785;1092;22548;-60
2021/06/07 00:29:28;;;;;;;6.30;4.50;;;;;;;14.52;79.51;99152.91;129733;1093;113592;-60
2021/06/07 00:32:05;;;;;;;;;;;;;;;14.50;79.39;99146.89;129859;1093;23158;-60
2021/06/07 00:34:34;;;;;;;5.75;4.50;;;;;;;14.44;79.10;99137.08;129739;1092;100128;-60
2021/06/07 00:37:03;;;;;;;4.90;4.40;;;;;;;14.40;78.74;99147.02;129797;1093;23041;-59
2021/06/07 00:39:32;;;;;;;6.20;4.30;;;;;;;14.36;78.78;99148.67;129669;1094;114489;-62
2021/06/07 00:42:00;;;;;;;11.25;4.65;;;;;;;14.33;78.63;99146.51;129837;1093;23593;-61
2021/06/07 00:44:29;;;;;;;6.70;5.15;;;;;;;14.29;78.74;99151.75;129821;1092;23378;-62
2021/06/07 00:46:57;;;;;;;7.30;4.45;;;;;;;14.26;78.98;99157.84;129745;1093;114002;-62
2021/06/07 00:49:28;;;;;;;7.90;5.70;;;;;;;14.23;78.76;99150.19;129800;1093;22538;-62
2021/06/07 00:51:57;;;;;;;7.83;5.13;;;;;;;14.21;79.04;99154.32;129678;1091;113878;-62
2021/06/07 00:54:25;;;;;;;9.68;5.50;;;;;;;14.16;79.09;99156.00;129766;1093;23295;-61
2021/06/07 00:56:54;;;;;;;9.30;5.15;;;;;;;14.14;78.92;99154.66;129794;1093;22578;-61
2021/06/07 00:59:22;;;;;;;7.53;4.45;;;;;;;14.11;78.99;99155.26;129730;1092;113964;-60
2021/06/07 01:01:51;;;;;;;7.53;5.10;;;;;;;14.05;78.26;99157.22;129753;1093;22589;-61
2021/06/07 01:04:20;;;;;;;8.80;5.68;;;;;;;14.02;78.58;99163.27;129680;1093;113975;-61
2021/06/07 01:06:50;;;;;;;12.08;5.43;;;;;;;14.00;78.75;99159.19;129800;1092;22559;-61
2021/06/07 01:09:18;;;;;;;9.28;5.78;;;;;;;13.94;79.05;99152.14;129669;1093;113886;-61
2021/06/07 01:11:48;;;;;;;6.55;5.73;;;;;;;13.94;79.30;99155.70;129839;1092;23134;-61
2021/06/07 01:14:16;;;;;;;11.35;6.05;;;;;;;13.93;79.63;99165.02;129846;1092;22656;-62
2021/06/07 01:16:45;;;;;;;10.58;6.00;;;;;;;13.91;79.54;99161.75;129719;1092;113811;-61
2021/06/07 01:19:14;;;;;;;8.15;5.18;;;;;;;13.88;79.25;99165.05;129782;1093;22583;-61
2021/06/07 01:21:42;;;;;;;7.25;5.80;;;;;;;13.86;79.50;99159.05;129683;1091;114337;-61
2021/06/07 01:24:11;;;;;;;6.98;4.98;;;;;;;13.83;78.89;99161.56;129803;1093;22566;-62
2021/06/07 01:26:39;;;;;;;8.03;5.15;;;;;;;13.78;78.71;99165.98;129765;1093;22568;-62
2021/06/07 01:29:08;;;;;;;11.05;5.20;;;;;;;13.73;78.76;99170.66;129745;1093;113792;-61
2021/06/07 01:31:36;;;;;;;6.68;4.63;;;;;;;13.67;78.86;99169.09;129798;1093;22890;-61
2021/06/07 01:34:05;;;;;;;12.80;5.25;;;;;;;13.63;78.81;99177.05;129684;1093;113989;-61
2021/06/07 01:36:33;;;;;;;13.98;5.20;;;;;;;13.62;78.86;99175.42;129807;1093;22594;-62
2021/06/07 01:39:01;;;;;;;10.23;5.55;;;;;;;13.63;79.46;99179.80;129794;1092;22580;-62
2021/06/07 01:41:37;;;;;;;11.98;5.33;;;;;;;13.64;79.78;99184.17;129712;1092;112807;-67
2021/06/07 01:44:05;;;;;;;13.25;5.33;;;;;;;13.67;80.45;99180.86;129821;1093;22574;-65
2021/06/07 01:46:34;;;;;;;7.50;5.65;;;;;;;13.69;80.29;99178.66;129693;1092;114173;-65
2021/06/07 01:49:02;;;;;;;9.95;6.03;;;;;;;13.72;80.23;99185.45;129822;1092;22907;-65
2021/06/07 01:51:30;;;;;;;11.40;5.70;;;;;;;13.73;80.39;99187.09;129724;1093;113791;-65
2021/06/07 01:53:59;;;;;;;8.00;6.18;;;;;;;13.76;80.59;99183.79;129747;1093;22580;-65
2021/06/07 01:56:27;;;;;;;9.13;6.18;;;;;;;13.73;80.67;99176.96;129770;1092;22575;-65
2021/06/07 01:58:55;;;;;;;5.95;5.30;;;;;;;13.80;80.39;99179.38;129742;1092;113635;-66
2021/06/07 02:01:24;;;;;;;9.05;6.13;;;;;;;13.82;80.60;99173.63;129784;1093;22537;-66
2021/06/07 02:03:52;;;;;;;6.98;5.63;;;;;;;13.82;80.73;99170.88;129721;1092;114378;-66
2021/06/07 02:06:22;;;;;;;12.53;6.35;;;;;;;13.83;81.16;99170.59;129853;1092;22548;-66
2021/06/07 02:08:53;;;;;;;10.93;6.53;;;;;;;13.85;81.29;99173.84;129844;1092;22589;-66
2021/06/07 02:11:24;;;;;;;10.85;5.78;;;;;;;13.84;80.85;99171.41;129668;1093;113788;-66
2021/06/07 02:13:53;;;;;;;9.73;6.20;;;;;;;13.84;81.26;99172.23;129781;1093;23440;-65
2021/06/07 02:16:26;;;;;;;7.83;5.80;;;;;;;13.89;81.19;99182.30;129681;1093;113967;-67
2021/06/07 02:18:55;;;;;;;7.80;5.85;;;;;;;13.92;81.33;99188.03;129823;1093;22580;-65
2021/06/07 02:21:24;;;;;;;8.30;5.83;;;;;;;13.94;80.98;99185.83;129718;1092;113824;-65
2021/06/07 02:23:53;;;;;;;10.25;6.38;;;;;;;13.97;80.84;99187.17;129836;1093;22575;-66
2021/06/07 02:26:21;;;;;;;8.73;5.98;;;;;;;13.98;80.64;99186.89;129799;1093;22549;-65
2021/06/07 02:28:52;;;;;;;9.13;5.88;;;;;;;13.98;80.88;99183.33;129754;1092;114127;-65
2021/06/07 02:31:20;;;;;;;9.63;6.00;;;;;;;13.98;80.25;99188.81;129813;1092;22555;-65
2021/06/07 02:33:50;;;;;;;8.33;6.00;;;;;;;13.95;80.17;99190.20;129684;1093;114483;-65
2021/06/07 02:36:19;;;;;;;7.65;5.65;;;;;;;13.92;80.10;99189.95;129871;1093;22607;-65
2021/06/07 02:38:48;;;;;;;14.83;6.25;;;;;;;13.92;80.45;99187.21;129788;1092;23285;-65
2021/06/07 02:41:17;;;;;;;9.03;6.18;;;;;;;13.92;80.69;99196.25;125551;1093;114036;-66
2021/06/07 02:43:47;;;;;;;13.00;6.75;;;;;;;13.92;80.67;99201.73;125128;1093;24492;-66
2021/06/07 02:46:16;;;;;;;7.88;5.78;;;;;;;13.91;80.77;99197.35;125056;1093;113986;-67
2021/06/07 02:48:45;;;;;;;6.90;5.20;;;;;;;13.94;80.91;99195.97;129818;1093;22742;-67
2021/06/07 02:51:14;;;;;;;7.50;5.38;;;;;;;13.96;80.90;99199.23;129729;1093;114120;-67
2021/06/07 02:53:42;;;;;;;9.98;5.98;;;;;;;13.97;81.13;99204.43;129842;1092;23401;-67
2021/06/07 02:56:11;;;;;;;13.28;5.70;;;;;;;13.99;80.90;99209.63;129800;1092;22601;-67
2021/06/07 02:58:40;;;;;;;7.35;5.75;;;;;;;14.00;81.23;99211.23;129718;1092;114369;-67
2021/06/07 03:01:10;;;;;;;8.68;5.38;;;;;;;14.01;81.41;99204.65;129826;1092;22517;-67
2021/06/07 03:03:39;;;;;;;7.33;5.80;;;;;;;14.03;81.27;99205.18;129731;1093;114335;-66
2021/06/07 03:06:08;;;;;;;6.73;5.35;;;;;;;14.05;81.53;99201.05;129839;1092;22669;-68
2021/06/07 03:08:36;;;;;;;6.23;5.50;;;;;;;14.11;81.75;99204.57;129794;1092;22557;-66
2021/06/07 03:11:08;;;;;;;7.48;5.70;;;;;;;14.14;82.12;99202.05;129704;1093;114106;-66
2021/06/07 03:13:39;;;;;;;7.98;5.48;;;;;;;14.20;81.75;99208.31;129821;1093;22631;-66
2021/06/07 03:16:07;;;;;;;9.95;5.48;;;;;;;14.26;81.99;99204.42;129693;1093;113790;-66
2021/06/07 03:18:36;;;;;;;8.50;5.33;;;;;;;14.34;82.50;99202.95;129803;1093;23726;-66
2021/06/07 03:21:05;;;;;;;10.83;6.25;;;;;;;14.40;82.04;99196.36;129883;1093;22563;-67
2021/06/07 03:23:35;;;;;;;12.45;6.98;;;;;;;14.48;82.17;99192.97;129707;1093;113900;-67
2021/06/07 03:26:03;;;;;;;10.53;5.90;;;;;;;14.56;82.76;99191.52;129815;1092;22556;-66
2021/06/07 03:28:32;;;;;;;13.03;6.13;;;;;;;14.63;82.57;99195.53;129734;1093;114973;-66
2021/06/07 03:31:00;;;;;;;7.60;5.93;;;;;;;14.70;82.46;99198.75;129807;1093;22541;-66
2021/06/07 03:33:29;;;;;;;7.40;5.25;;;;;;;14.77;82.18;99190.15;129694;1092;114016;-66
2021/06/07 03:35:58;;;;;;;8.40;6.08;;;;;;;14.83;82.67;99198.03;129806;1093;22670;-66
2021/06/07 03:38:27;;;;;;;7.68;6.20;;;;;;;14.90;82.32;99199.59;129808;1092;22526;-66
2021/06/07 03:40:55;;;;;;;7.93;5.90;;;;;;;14.96;82.01;99193.75;129726;1093;113770;-62
2021/06/07 03:43:34;;;;;;;10.78;6.30;;;;;;;15.01;81.82;99196.41;129812;1093;22659;-62
2021/06/07 03:46:03;;;;;;;13.75;6.90;;;;;;;15.05;81.74;99193.89;129752;1093;114006;-61
2021/06/07 03:48:31;;;;;;;8.48;6.15;;;;;;;15.08;81.96;99191.38;129783;1093;22580;-61
2021/06/07 03:51:00;;;;;;;6.53;5.80;;;;;;;15.12;81.87;99189.69;129858;1092;22525;-62
2021/06/07 03:53:28;;;;;;;11.40;6.85;;;;;;;15.16;81.75;99196.20;129739;1093;113642;-62
2021/06/07 03:55:57;;;;;;;9.05;5.85;;;;;;;15.19;81.25;99198.36;129813;1092;22548;-62
2021/06/07 03:58:27;;;;;;;11.43;6.70;;;;;;;15.23;81.38;99200.52;129712;1093;114240;-62
2021/06/07 04:00:55;;;;;;;11.78;6.05;;;;;;;15.25;81.15;99198.30;129809;1093;22652;-62
2021/06/07 04:03:24;;;;;;;9.03;6.50;;;;;;;15.28;81.07;99195.78;129703;1093;114010;-62
2021/06/07 04:05:54;;;;;;;9.00;6.08;;;;;;;15.30;80.90;99199.02;129812;1093;22516;-62
2021/06/07 04:08:22;;;;;;;10.65;5.93;;;;;;;15.33;80.79;99197.61;129808;1093;22705;-62
2021/06/07 04:10:50;;;;;;;9.28;6.45;;;;;;;15.35;80.68;99203.63;129705;1092;114095;-62
2021/06/07 04:13:19;;;;;;;8.35;6.30;;;;;;;15.38;80.58;99203.86;129855;1093;22553;-62
2021/06/07 04:15:48;;;;;;;9.37;6.87;;;;;;;15.39;80.68;99208.23;129697;1093;113932;-61
2021/06/07 04:18:17;;;;;;;10.75;7.35;;;;;;;15.41;80.59;99210.69;129821;1092;23446;-62
2021/06/07 04:20:46;;;;;;;18.10;7.08;;;;;;;15.42;80.76;99215.89;129884;1093;22525;-61
2021/06/07 04:23:14;;;;;;;11.25;6.80;;;;;;;15.43;80.54;99216.70;129711;1093;113811;-62
2021/06/07 04:25:42;;;;;;;9.90;7.53;;;;;;;15.42;80.23;99213.14;129788;1093;22590;-62
2021/06/07 04:28:11;;;;;;;13.70;7.60;;;;;;;15.42;80.56;99215.89;129743;1093;113757;-61
2021/06/07 04:30:39;;;;;;;9.30;7.20;;;;;;;15.43;80.61;99214.77;129790;1093;22606;-61
2021/06/07 04:33:09;;;;;;;8.98;7.45;;;;;;;15.44;80.49;99218.31;129814;1091;22563;-62
2021/06/07 04:35:38;;;;;;;10.15;7.68;;;;;;;15.45;80.44;99217.20;129744;1093;113527;-62
2021/06/07 04:38:06;;;;;;;11.95;7.78;;;;;;;15.45;80.17;99207.03;129802;1093;23119;-61
2021/06/07 04:40:38;;;;;;;13.50;7.30;;;;;;;15.48;79.78;99216.61;126885;1093;114223;-61
2021/06/07 04:43:10;;;;;;;12.25;7.73;;;;;;;15.48;80.28;99222.09;129817;1092;22555;-62
2021/06/07 04:45:40;;;;;;;10.50;7.28;;;;;;;15.50;79.96;99217.13;129708;1093;114146;-62
2021/06/07 04:48:09;;;;;;;12.03;7.48;;;;;;;15.49;80.18;99224.55;129833;1092;22549;-62
2021/06/07 04:50:38;;;;;;;13.13;8.03;;;;;;;15.49;80.06;99219.06;129847;1093;22676;-62
2021/06/07 04:53:07;;;;;;;15.58;9.38;;;;;;;15.48;79.75;99220.17;129697;1093;114126;-62
2021/06/07 04:55:38;;;;;;;16.13;8.93;;;;;;;15.48;79.74;99219.35;129843;1093;22624;-62
2021/06/07 04:58:17;;;;;;;11.98;8.58;;;;;;;15.50;79.68;99230.86;129726;1092;115073;-62
2021/06/07 05:00:48;;;;;;;12.65;8.83;;;;;;;15.53;79.89;99230.27;129811;1092;22554;-62
2021/06/07 05:03:16;;;;;;;13.10;9.08;;;;;;;15.58;80.02;99237.66;129791;1093;23297;-62
2021/06/07 05:05:46;;;;;;;13.90;8.90;;;;;;;15.61;79.89;99237.04;129703;1093;113858;-62
2021/06/07 05:08:14;;;;;;;12.60;7.93;;;;;;;15.64;79.92;99240.02;129836;1093;22550;-61
2021/06/07 05:10:51;;;;;;;14.55;8.30;;;;;;;15.66;79.90;99225.98;129724;1092;113903;-62
2021/06/07 05:13:20;;;;;;;10.60;7.15;;;;;;;15.70;79.71;99227.84;129791;1093;22560;-62
2021/06/07 05:15:48;;;;;;;9.08;6.93;;;;;;;15.74;79.59;99228.04;129627;1093;114287;-62
2021/06/07 05:18:17;;;;;;;8.58;7.03;;;;;;;15.76;79.44;99232.13;129835;1093;22569;-62
2021/06/07 05:20:45;;;;;;;8.20;6.55;;;;;;;15.80;79.44;99235.09;129850;1093;22526;-61
2021/06/07 05:23:15;;;;;;;9.25;6.40;;;;;;;15.83;79.29;99229.83;129684;1093;114298;-62
2021/06/07 05:25:44;;;;;;;8.83;5.95;;;;;;;15.86;79.40;99234.73;129785;1093;22580;-62
2021/06/07 05:28:13;;;;;;;8.45;6.08;;;;;;;15.89;79.21;99227.80;129744;1093;113895;-62
2021/06/07 05:30:43;;;;;;;9.40;6.48;;;;;;;15.93;79.29;99233.52;129796;1092;22564;-62
2021/06/07 05:33:11;;;;;;;6.45;5.58;;;;;;;15.96;79.20;99232.92;129796;1093;22550;-62
2021/06/07 05:35:42;;;;;;;10.20;5.90;;;;;;;15.99;79.26;99226.83;129687;1093;113557;-60
2021/06/07 05:38:11;;;;;;;6.43;5.83;;;;;;;16.03;79.44;99230.59;129760;1093;23158;-60
2021/06/07 05:40:40;;;;;;;7.90;5.93;;;;;;;16.06;79.18;99236.30;129694;1093;114235;-61
2021/06/07 05:43:08;;;;;;;8.15;5.88;;;;;;;16.10;79.44;99239.27;129844;1092;22530;-60
2021/06/07 05:45:37;;;;;;;9.83;6.03;;;;;;;16.14;79.31;99241.13;129691;1093;114212;-59
2021/06/07 05:48:06;;;;;;;7.60;5.48;;;;;;;16.18;79.05;99241.32;129785;1093;23386;-60
2021/06/07 05:50:35;;;;;;;7.90;6.10;;;;;;;16.22;79.32;99243.17;129812;1093;23193;-61
2021/06/07 05:53:04;;;;;;;10.10;6.25;;;;;;;16.29;79.11;99250.23;129704;1093;113743;-61
2021/06/07 05:55:35;;;;;;;10.65;7.80;;;;;;;16.29;79.02;99237.30;129701;1093;22585;-62
2021/06/07 05:58:06;;;;;;;10.00;6.30;;;;;;;16.35;78.80;99230.56;129668;1092;114048;-61
2021/06/07 06:03:09;;;;;;;22.88;13.95;;;;;;;16.42;78.67;99231.00;125630;1092;22768;-60
2021/06/07 06:05:38;;;;;;;10.43;5.83;;;;;;;16.47;78.52;99238.32;129898;1093;113753;-60
2021/06/07 06:08:06;;;;;;;8.60;5.70;;;;;;;16.53;78.49;99235.19;129816;1093;22555;-60
2021/06/07 06:10:35;;;;;;;13.48;8.35;;;;;;;16.58;78.10;99232.34;129763;1093;113275;-60
2021/06/07 06:13:03;;;;;;;10.10;5.98;;;;;;;16.64;77.95;99226.77;129866;1092;22521;-60
2021/06/07 06:15:33;;;;;;;15.30;5.65;;;;;;;16.69;77.67;99227.48;129701;1093;113730;-59
2021/06/07 06:18:03;;;;;;;8.23;5.95;;;;;;;16.75;77.48;99230.94;129880;1093;22546;-60
2021/06/07 06:20:33;;;;;;;12.93;5.95;;;;;;;16.79;77.41;99224.52;129794;1093;22550;-59
2021/06/07 06:23:01;;;;;;;13.18;5.90;;;;;;;16.80;77.37;99231.66;129723;1093;113808;-60
2021/06/07 06:25:30;;;;;;;8.43;5.53;;;;;;;16.90;77.15;99241.63;129855;1092;22571;-59
2021/06/07 06:27:58;;;;;;;9.30;5.83;;;;;;;16.94;77.08;99242.66;129766;1093;113998;-59
2021/06/07 06:30:28;;;;;;;6.88;5.15;;;;;;;16.99;77.29;99245.32;129868;1093;22585;-60
2021/06/07 06:32:59;;;;;;;9.43;5.50;;;;;;;17.01;76.88;99237.58;129860;1092;22560;-60
2021/06/07 06:35:28;;;;;;;7.70;4.80;;;;;;;17.02;76.87;99230.95;129769;1092;113513;-59
2021/06/07 06:37:57;;;;;;;11.15;5.03;;;;;;;17.05;77.23;99233.06;129858;1093;23597;-60
2021/06/07 06:40:27;;;;;;;7.85;5.48;;;;;;;17.07;77.29;99235.51;129815;1092;113890;-65
2021/06/07 06:42:56;;;;;;;17.93;5.80;;;;;;;17.09;77.34;99249.78;129847;1092;22687;-65
2021/06/07 06:45:25;;;;;;;5.65;4.90;;;;;;;17.11;77.34;99250.30;129732;1093;113680;-65
2021/06/07 06:47:57;;;;;;;8.85;4.85;;;;;;;17.11;77.21;99251.12;129844;1092;23118;-66
2021/06/07 06:50:27;;;;;;;8.28;4.80;;;;;;;17.14;77.40;99241.44;129801;1093;22604;-66
2021/06/07 06:52:55;;;;;;;10.43;5.28;;;;;;;17.19;77.52;99238.55;129689;1092;114685;-70
2021/06/07 06:55:26;;;;;;;12.10;5.60;;;;;;;17.24;77.33;99243.95;129845;1093;22514;-66
2021/06/07 06:57:55;;;;;;;6.58;4.65;;;;;;;17.30;77.14;99239.98;129678;1093;114044;-65
2021/06/07 07:00:23;;;;;;;9.85;5.85;;;;;;;17.34;76.85;99243.73;129886;1093;23580;-64
2021/06/07 07:02:53;;;;;;;6.53;4.80;;;;;;;17.38;76.43;99253.01;129808;1092;22561;-64
2021/06/07 07:05:21;;;;;;;5.60;4.25;;;;;;;17.41;76.22;99246.07;129722;1093;113661;-65
2021/06/07 07:07:49;;;;;;;8.60;5.05;;;;;;;17.44;75.87;99239.95;129862;1093;22569;-65
2021/06/07 07:10:25;;;;;;;9.78;4.90;;;;;;;17.49;76.03;99243.38;129858;1092;113604;-65
2021/06/07 07:12:54;;;;;;;6.23;5.45;;;;;;;17.57;75.90;99244.60;129840;1093;22540;-65
2021/06/07 07:15:22;;;;;;;8.90;4.55;;;;;;;17.63;75.94;99235.92;129751;1093;23113;-64
2021/06/07 07:17:50;;;;;;;10.15;5.30;;;;;;;17.71;76.03;99231.63;129751;1093;113664;-65
2021/06/07 07:20:19;;;;;;;6.55;4.90;;;;;;;17.81;75.77;99238.83;129829;1092;22532;-66
2021/06/07 07:22:47;;;;;;;7.28;4.00;;;;;;;17.89;75.26;99227.85;126132;1093;114535;-64
2021/06/07 07:25:15;;;;;;;16.10;13.35;;;;;;;17.99;74.11;99226.80;129692;1092;23611;-65
2021/06/07 07:27:44;;;;;;;9.88;6.73;;;;;;;18.07;73.36;99231.55;129743;1093;114013;-64
2021/06/07 07:30:15;;;;;;;7.93;5.08;;;;;;;18.13;72.64;99232.25;129847;1093;22657;-66
2021/06/07 07:32:46;;;;;;;19.65;12.78;;;;;;;18.20;73.34;99229.84;129827;1093;23439;-65
2021/06/07 07:35:14;;;;;;;8.60;5.25;;;;;;;18.29;73.81;99233.48;129690;1093;113992;-65
2021/06/07 07:37:44;;;;;;;6.33;3.95;;;;;;;18.40;72.79;99226.56;129808;1093;22597;-65
2021/06/07 07:40:14;;;;;;;8.45;5.10;;;;;;;18.52;72.72;99232.30;129770;1092;114196;-59
2021/06/07 07:42:43;;;;;;;8.50;4.43;;;;;;;18.64;71.93;99240.00;129829;1093;22540;-59
2021/06/07 07:45:12;;;;;;;7.25;3.78;;;;;;;18.75;71.63;99230.34;129855;1093;22652;-59
2021/06/07 07:47:40;;;;;;;6.43;4.40;;;;;;;18.88;71.20;99223.88;129734;1092;113593;-59
2021/06/07 07:50:11;;;;;;;64.30;57.53;;;;;;;19.00;70.04;99226.02;129821;1092;22582;-59
2021/06/07 07:52:41;;;;;;;12.80;7.58;;;;;;;19.06;68.80;99220.02;129701;1092;114330;-59
2021/06/07 07:55:10;;;;;;;23.48;14.53;;;;;;;19.16;67.81;99226.39;129803;1093;23635;-59
2021/06/07 07:57:42;;;;;;;46.85;26.55;;;;;;;19.23;67.03;99219.24;129677;1093;114034;-59
2021/06/07 08:00:12;;;;;;;88.80;62.13;;;;;;;19.29;66.85;99217.97;129822;1093;22552;-60
2021/06/07 08:02:42;;;;;;;19.25;12.68;;;;;;;19.33;65.64;99221.69;129814;1091;22573;-60
2021/06/07 08:05:11;;;;;;;15.68;11.78;;;;;;;19.36;65.68;99223.00;129673;1092;113963;-60
2021/06/07 08:07:39;;;;;;;10.18;4.48;;;;;;;19.38;65.74;99226.25;129775;1093;22600;-60
2021/06/07 08:10:19;;;;;;;6.68;5.50;;;;;;;19.43;65.08;99228.88;129771;1093;113719;-60
2021/06/07 08:12:48;;;;;;;10.05;4.20;;;;;;;19.48;64.51;99231.45;129834;1092;22537;-59
2021/06/07 08:15:20;;;;;;;30.45;18.65;;;;;;;19.51;63.16;99230.03;129820;1093;22531;-60
2021/06/07 08:17:48;;;;;;;23.02;14.15;;;;;;;19.54;62.56;99232.97;129725;1093;113599;-59
2021/06/07 08:20:18;;;;;;;23.60;13.50;;;;;;;19.55;61.81;99231.83;129816;1093;23058;-60
2021/06/07 08:22:47;;;;;;;10.70;6.68;;;;;;;19.54;62.53;99235.73;129714;1093;114214;-59
2021/06/07 08:25:16;;;;;;;13.13;4.60;;;;;;;19.55;62.78;99228.25;129850;1093;22524;-59
2021/06/07 08:27:45;;;;;;;8.78;3.43;;;;;;;19.56;62.69;99216.88;129681;1093;114195;-59
2021/06/07 08:30:14;;;;;;;8.13;3.53;;;;;;;19.60;62.13;99223.39;129814;1092;23376;-59
2021/06/07 08:32:42;;;;;;;6.48;3.73;;;;;;;19.61;62.12;99226.97;129814;1092;22556;-59
2021/06/07 08:35:11;;;;;;;20.03;12.35;;;;;;;19.61;62.25;99229.73;129732;1093;114076;-59
2021/06/07 08:37:39;;;;;;;9.08;5.43;;;;;;;19.65;62.73;99236.22;129831;1092;22605;-60
2021/06/07 08:40:10;;;;;;;10.53;4.45;;;;;;;19.63;61.43;99231.01;129763;1093;113830;-60
2021/06/07 08:42:42;;;;;;;3.83;3.33;;;;;;;19.65;62.90;99225.16;129827;1093;22552;-60
2021/06/07 08:45:18;;;;;;;8.10;4.88;;;;;;;19.69;63.15;99228.91;129842;1093;22586;-60
2021/06/07 08:47:48;;;;;;;4.50;3.88;;;;;;;19.73;63.68;99224.36;129752;1093;113378;-60
2021/06/07 08:50:18;;;;;;;11.85;5.05;;;;;;;19.80;64.23;99221.91;129809;1093;22589;-60
2021/06/07 08:52:46;;;;;;;12.87;6.83;;;;;;;19.87;63.90;99219.48;129724;1093;114842;-60
2021/06/07 08:55:17;;;;;;;12.93;6.73;;;;;;;19.96;63.76;99222.22;129828;1093;22525;-60
2021/06/07 08:57:50;;;;;;;10.43;5.18;;;;;;;20.05;62.89;99223.82;129763;1092;114316;-60
2021/06/07 09:00:24;;;;;;;7.68;4.83;;;;;;;20.15;63.64;99219.11;129816;1092;22551;-60
2021/06/07 09:03:00;;;;;;;9.15;4.00;;;;;;;20.24;62.01;99217.94;129787;1093;22697;-60
2021/06/07 09:05:30;;;;;;;6.50;3.90;;;;;;;20.33;61.30;99224.28;129696;1092;113652;-60
2021/06/07 09:08:02;;;;;;;5.93;4.18;;;;;;;20.38;60.22;99218.58;129820;1093;23878;-60
2021/06/07 09:10:36;;;;;;;9.38;4.93;;;;;;;20.40;59.69;99221.84;129742;1093;113702;-60
2021/06/07 09:13:05;;;;;;;10.60;3.95;;;;;;;20.42;60.29;99227.05;129827;1092;22529;-60
2021/06/07 09:15:36;;;;;;;9.18;3.73;;;;;;;20.42;58.99;99222.32;129718;1093;114820;-60
2021/06/07 09:18:06;;;;;;;5.33;3.73;;;;;;;20.41;59.68;99220.70;129826;1092;22544;-60
2021/06/07 09:20:35;;;;;;;6.40;3.78;;;;;;;20.41;59.33;99226.23;129795;1093;23375;-60
2021/06/07 09:23:08;;;;;;;8.33;4.05;;;;;;;20.41;60.09;99228.18;129734;1092;114023;-60
2021/06/07 09:25:39;;;;;;;5.95;4.15;;;;;;;20.38;60.30;99221.34;129820;1093;22575;-60
2021/06/07 09:28:13;;;;;;;6.20;4.40;;;;;;;20.40;60.80;99215.48;129737;1093;113994;-60
2021/06/07 09:31:01;;;;;;;14.63;4.40;;;;;;;20.40;60.06;99221.84;129847;1093;22518;-60
2021/06/07 09:33:38;;;;;;;7.68;4.78;;;;;;;20.38;61.08;99210.28;129693;1093;113943;-61
2021/06/07 09:36:06;;;;;;;;;;;;;;;20.43;60.18;99209.30;129826;1093;22585;-60
2021/06/07 09:38:49;;;;;;;8.45;3.95;;;;;;;20.49;60.86;99199.66;129817;1093;21306;-60
2021/06/07 09:41:19;;;;;;;10.78;4.10;;;;;;;20.60;59.81;99200.94;129721;1092;113752;-61
2021/06/07 09:43:54;;;;;;;9.83;3.80;;;;;;;20.73;58.65;99193.55;129832;1091;22659;-61
2021/06/07 09:46:25;;;;;;;9.20;4.78;;;;;;;20.79;58.84;99190.23;129738;1093;113963;-61
2021/06/07 09:49:21;;;;;;;10.43;4.83;;;;;;;20.89;58.25;99191.02;129790;1093;22545;-61
2021/06/07 09:51:58;;;;;;;9.30;4.05;;;;;;;20.97;56.78;99188.20;129673;1093;114002;-61
2021/06/07 09:54:26;;;;;;;8.83;4.58;;;;;;;21.03;57.79;99189.64;129822;1093;22524;-60
2021/06/07 09:56:59;;;;;;;6.50;3.93;;;;;;;21.10;57.35;99186.32;129826;1093;22552;-62
2021/06/07 09:59:40;;;;;;;7.68;4.70;;;;;;;21.11;56.76;99176.86;129720;1092;114047;-62
2021/06/07 10:02:17;;;;;;;7.35;3.90;;;;;;;21.13;56.42;99180.12;129856;1093;22629;-61
2021/06/07 10:05:00;;;;;;;13.75;3.48;;;;;;;21.14;56.86;99177.02;129699;1093;113720;-60
2021/06/07 10:07:29;;;;;;;8.50;5.03;;;;;;;21.16;57.49;99168.37;129829;1093;22549;-60
2021/06/07 10:10:08;;;;;;;6.68;3.85;;;;;;;21.22;56.84;99157.91;129706;1093;114113;-61
2021/06/07 10:12:37;;;;;;;6.43;3.55;;;;;;;21.24;55.86;99161.97;129856;1092;22523;-60
2021/06/07 10:15:09;;;;;;;5.60;3.20;;;;;;;21.27;55.87;99154.95;129795;1092;23298;-61
2021/06/07 10:17:38;;;;;;;5.33;3.55;;;;;;;21.29;55.78;99158.20;129740;1093;114408;-60
2021/06/07 10:22:36;;;;;;;7.03;3.00;;;;;;;21.34;55.21;99149.69;129724;1093;114232;-61
2021/06/07 10:25:06;;;;;;;4.95;3.23;;;;;;;21.34;55.39;99156.05;129829;1093;22534;-61
2021/06/07 10:27:35;;;;;;;3.48;2.63;;;;;;;21.35;55.20;99146.55;129716;1092;113868;-62
2021/06/07 10:30:17;;;;;;;3.20;2.18;;;;;;;21.35;54.10;99141.01;129866;1092;23342;-61
2021/06/07 10:32:45;;;;;;;3.60;2.83;;;;;;;21.35;53.95;99143.78;129838;1093;23131;-61
2021/06/07 10:35:27;;;;;;;3.88;2.60;;;;;;;21.37;52.89;99140.67;129737;1092;113582;-60
2021/06/07 10:38:09;;;;;;;5.18;2.53;;;;;;;21.37;53.28;99129.59;129807;1093;22563;-61
2021/06/07 10:40:41;;;;;;;3.28;2.60;;;;;;;21.39;52.67;99124.52;129676;1093;114185;-61
2021/06/07 10:43:11;;;;;;;3.68;3.23;;;;;;;21.42;52.85;99121.89;129836;1092;22537;-61
2021/06/07 10:45:41;;;;;;;7.65;4.35;;;;;;;21.46;53.46;99133.93;129683;1093;114366;-61
2021/06/07 10:48:11;;;;;;;6.83;4.90;;;;;;;21.54;54.07;99132.22;129860;1093;22570;-60
2021/06/07 10:50:44;;;;;;;5.25;3.93;;;;;;;21.62;53.28;99125.80;129844;1092;23063;-61
2021/06/07 10:53:23;;;;;;;5.73;3.68;;;;;;;21.71;53.21;99129.28;129718;1093;114062;-61
2021/06/07 10:56:03;;;;;;;6.63;5.10;;;;;;;21.83;52.73;99125.73;129832;1093;22550;-61
2021/06/07 10:58:32;;;;;;;8.38;5.95;;;;;;;21.92;51.66;99123.70;129736;1093;113797;-61
2021/06/07 11:01:02;;;;;;;5.03;3.38;;;;;;;21.96;52.20;99129.35;129771;1093;23351;-61
2021/06/07 11:03:36;;;;;;;6.58;3.28;;;;;;;22.00;52.94;99120.05;129708;1093;114008;-61
2021/06/07 11:06:06;;;;;;;4.38;2.90;;;;;;;22.06;53.91;99127.00;129847;1093;23113;-61
2021/06/07 11:08:36;;;;;;;7.05;3.60;;;;;;;22.13;52.24;99121.69;129780;1093;22550;-62
2021/06/07 11:11:16;;;;;;;3.80;2.70;;;;;;;22.17;52.75;99119.84;129700;1093;113810;-61
2021/06/07 11:13:53;;;;;;;6.15;4.10;;;;;;;22.25;52.25;99115.34;129836;1093;22500;-61
2021/06/07 11:16:28;;;;;;;6.10;3.90;;;;;;;22.30;51.32;99109.56;129709;1093;114489;-62
2021/06/07 11:18:58;;;;;;;6.53;3.60;;;;;;;22.31;51.26;99110.38;129829;1093;22568;-59
2021/06/07 11:21:37;;;;;;;4.53;3.63;;;;;;;22.27;51.83;99099.15;129830;1093;23313;-60
2021/06/07 11:24:28;;;;;;;4.50;3.13;;;;;;;22.25;51.73;99101.45;129711;1093;113634;-61
2021/06/07 11:27:46;;;;;;;5.95;2.85;;;;;;;22.25;51.60;99087.58;129828;1093;22590;-60
2021/06/07 11:30:19;;;;;;;4.70;3.38;;;;;;;22.28;51.31;99088.86;129633;1093;113470;-60
2021/06/07 11:32:49;;;;;;;6.73;3.70;;;;;;;22.27;51.09;99085.27;129790;1093;22610;-62
2021/06/07 11:35:41;;;;;;;3.73;3.00;;;;;;;22.27;51.78;99084.46;129693;1092;113772;-59
2021/06/07 11:38:32;;;;;;;6.15;2.68;;;;;;;22.29;51.95;99082.97;129816;1092;22589;-59
2021/06/07 11:41:03;;;;;;;6.58;4.38;;;;;;;22.34;50.92;99084.71;126143;1093;114043;-58